Alhaurin de la Torre, Spain
Current Conditions -  °F | °C
As of 6:30 AM on Friday 28 Nov 2014 (Local Time) from LEMG Reporting Station
Moderate Rain Moderate Rain  
Wind Chill: 15°   Ceiling: 3500
Heat Index: 15°   Visibility: 1.8mi
Dew Point: 12°   Wind: 25mph
Humidity: 82%   Direction: 110°ESE
Pressure: 29.09"   Gusts: 37mph
Location:  36.66°N, 4.56°W
Report Text: LEMG 280530Z 11022G32KT 080V140 3000 RA FEW015 BKN035 15/12 Q0985 RERA NOSIG
Loading
Personal Weather Stations






























Interactive Weather Map New forecast layout! Learn more

10-Day Weather Forecast

Advertisements
Track Severe Weather on mobile